Marco Island, FL

05:52 PM EDT pas Agustus 04, 2015 (GMT -0400)
Marco Island | | Change Station
CLOSE
Current Station
Personal Weather Stations
Location: Marco Island, FL
Elevation: 16 ft
Nearby Weather Stations

Elev 16 ft 25.95 °N, 81.73 °W | Updated 60 seconds ago

Padhang
Padhang
86.7 °F
Feels Like 97 °F
N
2.7
Angin Variable Angin from NE

Dina Iki
High -- | Low -- °F
--% Chance of Precip.
Yesterday
High -- | Low -- °F
Precip. -- ning
6:54 AM 8:11 PM
Waning Gibbous, 74% visible
Tekanan 30.05 ning
Jarak Tingali 10.0 mil
Mega Padhang
Indeks Panas 97 °F
Titik Embun 76 °F
Kelembaban 71%
Rainfall 0.00 ning
Snow Depth Not available.
UV 5 out of 12
Pollen 3.00 out of 12
Air Quality Not available.
Flu Activity Not available.
METAR KMKY 042135Z AUTO 00000KT 10SM CLR 28/22 A3005 RMK AO1 TSE20

More Conditions Fewer Conditions

Tekanan 30.05 ning
Jarak Tingali 10.0 mil
Mega Padhang
Indeks Panas 97 °F
Titik Embun 76 °F
Kelembaban 71%
Rainfall 0.00 ning
Snow Depth Not available.
UV 5 out of 12
Pollen 3.00 out of 12
Air Quality Not available.
Flu Activity Not available.
METAR KMKY 042135Z AUTO 00000KT 10SM CLR 28/22 A3005 RMK AO1 TSE20

More Conditions Fewer Conditions

Nowcast | as of 4:13 PM EDT on August 4, 2015

Showers and thunderstorms will affect the inland portion of Collier County as well as Mainland Monroe County and adjacent Gulf waters. These showers are nearly stationary and will produce brief downpours...gusty winds to near 30 mph and lightning strikes with the heaviest showers.

×

10-Day Weather Forecast

×

Almanac

Astronomy

Aug. 04, 2015 Rise Set
Actual Time
Civil Twilight
Nautical Twilight
Astronomical Twilight
Wulan
Length Of Visible Light
Length of Day
Tomorrow will be .
, % of the Moon is Illuminated

Today's Extremes

State Highs State Lows

Community

WunderPhotos

Upload Photos

1,843,992 photos uploaded!

WunderBlogs® & News

Nearby

Air Quality

  Air Quality AQ Index Pollutant
Not available.

Snow Depth

Station Depth Elevation

Earthquake Activity

Kutho Distance Mag. Time & Date
Minimum magnitude displayed is 2.5.

Coastal Water Temperatures

Panggonan Suhu

Stations

Nearby Weather Stations

Station Location Temp Angin Adhem Titik Embun Kelembaban Angin Precip. Elev Anyar Type